Jonkoping Airport


Codes: ESGJ/JKG
Name: Jonkoping Airport
City: Jonkoping
Country: Sweden
Elevation: 741 ft.
Website:
Wikipedia:

Photos at Jonkoping Airport


   Photos courtesy of SpottingLog. You can add your own sightings and photos by signing up for a free trial today.



No photos found.

Weather at Jonkoping Airport


Time (UTC)DescriptionTempratureWindCloud coverageVisibilityPressureHumidity
18-Apr-2024 00:00Scattered Clouds3°C0 mph, NE40%10000m1010hPa93%
18-Apr-2024 03:00Light Snow2°C2 mph, W60%2750m1011hPa95%
18-Apr-2024 06:00Light Snow2°C7 mph, N80%0m1012hPa96%
18-Apr-2024 09:00Light Snow1°C7 mph, N100%10000m1014hPa83%
18-Apr-2024 12:00Light Snow2°C9 mph, NE98%10000m1014hPa79%
18-Apr-2024 15:00Light Snow3°C9 mph, NE96%10000m1013hPa71%
18-Apr-2024 18:00Broken Clouds0°C4 mph, NE72%10000m1013hPa89%
18-Apr-2024 21:00Scattered Clouds-1°C4 mph, SE38%10000m1012hPa93%
19-Apr-2024 00:00Broken Clouds-2°C4 mph, SE67%10000m1011hPa93%
19-Apr-2024 03:00Overcast Clouds-3°C4 mph, E100%10000m1009hPa92%
19-Apr-2024 06:00Overcast Clouds-1°C9 mph, E100%10000m1008hPa81%
19-Apr-2024 09:00Overcast Clouds2°C9 mph, E100%10000m1007hPa64%
19-Apr-2024 12:00Light Rain3°C7 mph, NE100%10000m1007hPa71%
19-Apr-2024 15:00Light Snow4°C11 mph, NE99%10000m1008hPa67%
19-Apr-2024 18:00Light Snow1°C7 mph, NE99%10000m1010hPa84%
19-Apr-2024 21:00Scattered Clouds-2°C4 mph, NE31%10000m1012hPa92%
20-Apr-2024 00:00Scattered Clouds-1°C4 mph, NE45%8786m1013hPa92%
20-Apr-2024 03:00Light Snow-2°C9 mph, N82%10000m1015hPa88%
20-Apr-2024 06:00Scattered Clouds-1°C11 mph, N47%10000m1017hPa63%
20-Apr-2024 09:00Few Clouds2°C11 mph, NE20%10000m1018hPa54%
20-Apr-2024 12:00Scattered Clouds4°C9 mph, NE30%10000m1019hPa52%
20-Apr-2024 15:00Broken Clouds4°C7 mph, NE75%10000m1021hPa51%
20-Apr-2024 18:00Broken Clouds1°C2 mph, NE55%10000m1023hPa71%
20-Apr-2024 21:00Clear Sky-1°C2 mph, NW7%10000m1025hPa77%
21-Apr-2024 00:00Scattered Clouds-1°C4 mph, N31%10000m1026hPa83%
21-Apr-2024 03:00Overcast Clouds-1°C4 mph, NE99%10000m1028hPa84%
21-Apr-2024 06:00Overcast Clouds1°C9 mph, NE99%10000m1030hPa60%
21-Apr-2024 09:00Overcast Clouds3°C13 mph, NE89%10000m1032hPa51%
21-Apr-2024 12:00Broken Clouds5°C13 mph, NE60%10000m1032hPa46%
21-Apr-2024 15:00Broken Clouds5°C13 mph, NE59%10000m1032hPa50%
21-Apr-2024 18:00Broken Clouds3°C9 mph, NE61%10000m1033hPa64%
21-Apr-2024 21:00Clear Sky-2°C4 mph, NE10%10000m1036hPa86%
22-Apr-2024 00:00Clear Sky-2°C9 mph, NE10%10000m1035hPa85%
22-Apr-2024 03:00Clear Sky-3°C9 mph, NE7%10000m1035hPa81%
22-Apr-2024 06:00Clear Sky-1°C11 mph, NE8%10000m1034hPa70%
22-Apr-2024 09:00Scattered Clouds2°C11 mph, NE38%10000m1032hPa57%
22-Apr-2024 12:00Scattered Clouds4°C11 mph, N30%10000m1031hPa48%
22-Apr-2024 15:00Overcast Clouds4°C9 mph, NE90%10000m1029hPa46%
22-Apr-2024 18:00Broken Clouds2°C4 mph, N82%10000m1028hPa59%
22-Apr-2024 21:00Overcast Clouds-0°C4 mph, N94%10000m1027hPa70%